Time;durP1;ratioP1;P1;durP2;ratioP2;P2;SDS_P1;SDS_P2;PMS_P1;PMS_P2;Temp;Humidity;BMP_temperature;BMP_pressure;BME280_temperature;BME280_humidity;BME280_pressure;Samples;Min_cycle;Max_cycle;Signal;HPM_P1;HPM_P2
2022/06/24 00:01:26;;;;;;;6.32;2.88;;;;;;;20.28;56.47;93785.06;5031885;28;20037;-73
2022/06/24 00:03:52;;;;;;;11.52;7.65;;;;;;;20.26;56.03;93779.25;5033176;28;20029;-73
2022/06/24 00:06:18;;;;;;;7.45;5.25;;;;;;;20.22;56.14;93762.25;5030523;28;20033;-74
2022/06/24 00:08:47;;;;;;;11.40;7.57;;;;;;;20.36;56.19;93783.94;5046227;28;20115;-74
2022/06/24 00:11:13;;;;;;;11.77;7.00;;;;;;;20.42;56.30;93779.75;5033799;28;20403;-74
2022/06/24 00:13:39;;;;;;;10.75;7.15;;;;;;;20.39;56.40;93783.19;5033448;28;20033;-74
2022/06/24 00:16:05;;;;;;;11.90;7.47;;;;;;;20.31;56.15;93768.09;5033209;28;20029;-74
2022/06/24 00:18:30;;;;;;;13.38;7.63;;;;;;;20.34;56.71;93786.25;5019004;28;20576;-74
2022/06/24 00:20:56;;;;;;;11.68;7.03;;;;;;;20.46;55.96;93794.06;5013353;28;20113;-73
2022/06/24 00:23:22;;;;;;;9.90;6.88;;;;;;;20.38;56.33;93811.38;5012627;28;20079;-73
2022/06/24 00:25:49;;;;;;;8.43;4.95;;;;;;;20.38;56.48;93808.69;5011162;28;20029;-73
2022/06/24 00:28:15;;;;;;;6.03;5.00;;;;;;;20.40;56.08;93811.75;5011573;28;20049;-73
2022/06/24 00:30:42;;;;;;;7.15;4.22;;;;;;;20.33;55.76;93803.63;5013601;28;20366;-74
2022/06/24 00:33:08;;;;;;;5.82;4.13;;;;;;;20.36;56.33;93816.38;5028904;28;20038;-74
2022/06/24 00:35:59;;;;;;;5.60;4.20;;;;;;;20.07;56.26;93774.06;5012616;28;20421;-74
2022/06/24 00:38:33;;;;;;;4.95;3.33;;;;;;;20.21;56.67;93803.91;5010357;28;20029;-74
2022/06/24 00:41:11;;;;;;;4.40;3.28;;;;;;;20.32;56.53;93810.16;5027245;28;20021;-73
2022/06/24 00:43:39;;;;;;;3.42;3.00;;;;;;;20.21;55.48;93801.19;5026263;28;20052;-73
2022/06/24 00:46:25;;;;;;;6.32;3.33;;;;;;;20.26;55.67;93816.28;5013384;28;20044;-74
2022/06/24 00:48:58;;;;;;;4.57;3.33;;;;;;;20.16;56.21;93807.72;5012588;28;20088;-73
2022/06/24 00:51:33;;;;;;;6.15;3.25;;;;;;;20.24;56.18;93822.03;5011598;28;20112;-74
2022/06/24 00:54:07;;;;;;;6.80;3.08;;;;;;;20.15;55.33;93810.75;5011046;28;20797;-73
2022/06/24 00:56:32;;;;;;;7.93;2.97;;;;;;;20.15;55.62;93822.34;5012751;28;20065;-74
2022/06/24 00:59:04;;;;;;;4.50;3.78;;;;;;;20.10;55.05;93801.06;5012088;28;20501;-73
2022/06/24 01:01:35;;;;;;;3.45;3.03;;;;;;;19.97;54.87;93769.34;5008333;28;20198;-73
2022/06/24 01:04:03;;;;;;;4.82;2.90;;;;;;;20.19;55.11;93811.59;5017348;28;20044;-73
2022/06/24 01:06:29;;;;;;;3.63;3.00;;;;;;;20.28;55.32;93814.75;5010090;28;20033;-73
2022/06/24 01:08:56;;;;;;;5.35;3.45;;;;;;;20.28;54.78;93817.47;5012663;28;20516;-73
2022/06/24 01:11:29;;;;;;;4.50;2.95;;;;;;;20.15;55.05;93822.34;5011443;28;20077;-73
2022/06/24 01:13:55;;;;;;;4.50;2.75;;;;;;;20.03;55.42;93803.72;5010097;28;20098;-73
2022/06/24 01:16:21;;;;;;;4.80;3.00;;;;;;;20.15;55.51;93829.66;5016769;28;20041;-73
2022/06/24 01:18:51;;;;;;;4.93;2.70;;;;;;;20.16;55.27;93837.41;5024566;28;20103;-73
2022/06/24 01:21:36;;;;;;;4.90;2.90;;;;;;;20.22;55.21;93835.16;5012215;28;20030;-73
2022/06/24 01:24:04;;;;;;;;;;;;;;;20.16;55.50;93823.91;5011544;28;20486;-73
2022/06/24 01:26:29;;;;;;;4.88;3.00;;;;;;;20.07;55.56;93814.56;5010651;28;19921;-73
2022/06/24 01:28:55;;;;;;;6.93;3.13;;;;;;;20.04;55.86;93818.00;5010902;28;20711;-73
2022/06/24 01:31:20;;;;;;;4.13;2.97;;;;;;;20.05;55.81;93814.13;5012833;28;20042;-73
2022/06/24 01:33:46;;;;;;;7.00;3.15;;;;;;;19.93;56.13;93809.81;5010724;28;20397;-73
2022/06/24 01:36:11;;;;;;;6.25;3.40;;;;;;;20.06;56.48;93826.50;5007043;28;20099;-73
2022/06/24 01:38:37;;;;;;;4.68;2.83;;;;;;;19.94;56.51;93811.38;5010206;28;20182;-73
2022/06/24 01:41:02;;;;;;;4.25;3.15;;;;;;;20.09;56.67;93814.97;5008419;28;20116;-74
2022/06/24 01:43:27;;;;;;;10.30;3.42;;;;;;;20.09;56.48;93820.38;5016421;28;20677;-73
2022/06/24 01:45:53;;;;;;;4.65;3.38;;;;;;;19.97;56.12;93796.34;5011054;28;20038;-73
2022/06/24 01:48:18;;;;;;;4.20;3.15;;;;;;;19.69;56.19;93751.78;5010406;28;20034;-73
2022/06/24 01:50:44;;;;;;;4.28;2.55;;;;;;;20.13;56.33;93818.47;5009946;28;20567;-73
2022/06/24 01:53:09;;;;;;;5.18;3.00;;;;;;;20.12;56.10;93806.09;5009734;28;20056;-72
2022/06/24 01:55:34;;;;;;;4.25;3.38;;;;;;;20.07;56.34;93798.34;5010240;28;20038;-73
2022/06/24 01:58:00;;;;;;;4.13;2.97;;;;;;;19.97;56.18;93785.53;5011183;28;20153;-73
2022/06/24 02:00:26;;;;;;;6.93;3.30;;;;;;;20.05;56.29;93793.31;5011554;28;20137;-74
2022/06/24 02:02:51;;;;;;;4.97;3.10;;;;;;;20.01;56.15;93783.63;5010749;28;20049;-73
2022/06/24 02:05:19;;;;;;;3.83;3.00;;;;;;;19.92;57.25;93780.47;5009884;28;20025;-73
2022/06/24 02:07:44;;;;;;;3.75;2.90;;;;;;;;;;5010327;28;20022;-73
2022/06/24 02:15:37;;;;;;;2.85;2.20;;;;;;;19.79;56.06;93781.91;5009898;28;20052;-73
2022/06/24 02:18:03;;;;;;;3.58;3.28;;;;;;;19.75;56.25;93785.34;5009124;28;20029;-74
2022/06/24 02:20:28;;;;;;;3.25;2.90;;;;;;;19.69;56.12;93777.97;5010341;28;20083;-73
2022/06/24 02:22:54;;;;;;;3.83;2.90;;;;;;;19.57;55.90;93767.44;5012158;28;20641;-73
2022/06/24 02:25:19;;;;;;;4.43;2.65;;;;;;;19.47;56.60;93766.19;5009048;28;20037;-73
2022/06/24 02:27:46;;;;;;;3.53;2.60;;;;;;;19.49;56.45;93763.91;5010964;28;20096;-73
2022/06/24 02:30:12;;;;;;;4.68;2.80;;;;;;;19.63;56.00;93780.22;5009092;28;20025;-73
2022/06/24 02:32:37;;;;;;;3.83;3.35;;;;;;;19.40;55.87;93771.50;5010927;28;20042;-73
2022/06/24 02:35:03;;;;;;;5.95;2.30;;;;;;;19.51;55.62;93782.38;5013406;28;20419;-73
2022/06/24 02:37:28;;;;;;;3.83;2.33;;;;;;;19.53;55.62;93802.47;5010093;28;20160;-73
2022/06/24 02:39:54;;;;;;;3.50;2.47;;;;;;;19.49;55.71;93808.97;5010770;28;20426;-75
2022/06/24 02:42:19;;;;;;;4.20;2.47;;;;;;;19.43;55.87;93803.09;5009606;28;20498;-73
2022/06/24 02:44:45;;;;;;;3.70;3.03;;;;;;;19.42;56.17;93809.63;5014042;28;20435;-73
2022/06/24 02:47:10;;;;;;;4.75;3.30;;;;;;;19.11;56.66;93753.44;5029738;28;20029;-73
2022/06/24 02:49:36;;;;;;;5.22;2.90;;;;;;;19.30;56.85;93777.53;5009055;28;20029;-76
2022/06/24 02:52:01;;;;;;;4.47;3.10;;;;;;;19.28;56.85;93779.81;5008760;28;20413;-73
2022/06/24 02:54:27;;;;;;;4.32;2.72;;;;;;;19.35;57.00;93789.91;5009918;28;20029;-73
2022/06/24 02:56:52;;;;;;;5.63;3.35;;;;;;;19.28;57.08;93785.97;5009953;28;20030;-74
2022/06/24 02:59:17;;;;;;;5.90;3.30;;;;;;;19.39;56.97;93796.13;5007803;28;20037;-73
2022/06/24 03:01:43;;;;;;;8.30;4.28;;;;;;;19.30;57.28;93793.72;5010129;28;20159;-74
2022/06/24 03:04:08;;;;;;;6.63;4.95;;;;;;;19.34;57.53;93805.31;5010131;28;20034;-73
2022/06/24 03:06:34;;;;;;;6.03;5.13;;;;;;;19.18;57.89;93785.84;5008605;28;20052;-74
2022/06/24 03:08:59;;;;;;;8.27;5.43;;;;;;;19.29;57.91;93802.94;5012406;28;20055;-73
2022/06/24 03:11:24;;;;;;;9.52;5.40;;;;;;;19.21;57.73;93779.75;5012901;28;20072;-73
2022/06/24 03:13:50;;;;;;;8.73;5.20;;;;;;;19.38;56.74;93800.72;5012584;28;20502;-73
2022/06/24 03:16:15;;;;;;;6.05;3.78;;;;;;;19.39;56.25;93796.91;5012792;28;20034;-73
2022/06/24 03:18:41;;;;;;;8.95;3.67;;;;;;;19.41;56.14;93805.38;5004561;28;20061;-74
2022/06/24 03:21:08;;;;;;;5.13;4.25;;;;;;;19.35;56.80;93809.56;4998591;28;20081;-73
2022/06/24 03:23:33;;;;;;;4.80;4.22;;;;;;;19.39;56.80;93804.97;5001574;28;20030;-74
2022/06/24 03:26:02;;;;;;;5.97;4.00;;;;;;;19.36;57.17;93803.00;5013127;28;20030;-74
2022/06/24 03:28:27;;;;;;;5.43;3.13;;;;;;;19.29;57.52;93787.53;5012693;28;20555;-74
2022/06/24 03:30:52;;;;;;;4.15;3.40;;;;;;;19.43;57.60;93805.78;5012930;28;20045;-73
2022/06/24 03:33:18;;;;;;;8.50;4.57;;;;;;;19.21;57.77;93780.50;5014310;28;20087;-73
2022/06/24 03:35:43;;;;;;;5.57;5.00;;;;;;;19.39;57.80;93796.13;5014000;28;20108;-74
2022/06/24 03:38:09;;;;;;;9.27;7.22;;;;;;;19.48;58.02;93818.19;5013001;28;20041;-73
2022/06/24 03:40:34;;;;;;;6.80;4.85;;;;;;;19.32;57.71;93786.00;5012320;28;20033;-73
2022/06/24 03:42:59;;;;;;;7.50;5.03;;;;;;;19.38;58.07;93795.34;5013515;28;20048;-74
2022/06/24 03:45:25;;;;;;;6.10;5.00;;;;;;;19.50;58.38;93816.72;5013477;28;20476;-73
2022/06/24 03:47:51;;;;;;;8.02;6.10;;;;;;;19.41;58.19;93796.53;5013269;28;20038;-74
2022/06/24 03:50:16;;;;;;;8.40;5.15;;;;;;;19.28;58.69;93790.59;5011642;28;20528;-73
2022/06/24 03:52:42;;;;;;;7.45;5.40;;;;;;;19.15;59.01;93798.16;5012081;28;20049;-73
2022/06/24 03:55:08;;;;;;;9.27;6.10;;;;;;;19.23;59.23;93809.81;5011849;28;20038;-73
2022/06/24 03:57:33;;;;;;;9.60;6.93;;;;;;;19.36;59.04;93807.66;5010066;28;20160;-74
2022/06/24 03:59:58;;;;;;;7.45;5.95;;;;;;;19.44;58.30;93801.97;5013243;28;20037;-74
2022/06/24 04:02:24;;;;;;;9.48;5.75;;;;;;;19.42;58.74;93787.28;5011966;28;20112;-73
2022/06/24 04:04:49;;;;;;;8.55;6.05;;;;;;;19.48;59.04;93799.31;5013034;28;20033;-74
2022/06/24 04:07:15;;;;;;;99.25;11.38;;;;;;;19.50;59.39;93805.13;5011164;28;21009;-74
2022/06/24 04:09:40;;;;;;;8.60;5.30;;;;;;;19.55;59.19;93804.81;5011899;28;20671;-73
2022/06/24 04:12:06;;;;;;;8.02;5.88;;;;;;;19.56;59.07;93807.13;5010903;28;20633;-74
2022/06/24 04:17:15;;;;;;;13.52;5.65;;;;;;;19.45;58.44;93798.16;5011916;28;20036;-74
2022/06/24 04:19:40;;;;;;;9.70;5.90;;;;;;;19.49;58.77;93801.66;5011207;28;20417;-73
2022/06/24 04:22:06;;;;;;;9.98;6.10;;;;;;;19.59;58.76;93822.59;5010065;28;20112;-74
2022/06/24 04:24:31;;;;;;;9.45;5.80;;;;;;;19.61;58.45;93824.88;5011331;28;20036;-73
2022/06/24 04:26:56;;;;;;;8.48;5.57;;;;;;;19.56;58.67;93807.13;5012963;28;20058;-74
2022/06/24 04:29:22;;;;;;;11.15;4.90;;;;;;;19.64;58.79;93816.06;5012116;28;20565;-74
2022/06/24 04:31:47;;;;;;;9.15;6.20;;;;;;;19.61;58.45;93811.41;5011483;28;20025;-73
2022/06/24 04:34:12;;;;;;;6.30;4.43;;;;;;;19.72;58.32;93815.78;5011188;28;20041;-74
2022/06/24 04:36:38;;;;;;;7.57;5.72;;;;;;;19.66;58.18;93830.72;5012690;28;20038;-73
2022/06/24 04:39:03;;;;;;;6.53;5.18;;;;;;;19.58;58.73;93837.22;5017450;28;20049;-74
2022/06/24 04:41:29;;;;;;;8.05;5.43;;;;;;;19.49;59.41;93847.50;5032628;28;20833;-74
2022/06/24 04:43:54;;;;;;;7.90;5.45;;;;;;;19.35;59.34;93847.31;5030377;28;20034;-73
2022/06/24 04:46:21;;;;;;;9.18;6.43;;;;;;;19.09;60.55;93847.38;5031791;28;20026;-74
2022/06/24 04:48:46;;;;;;;12.30;5.72;;;;;;;19.24;60.50;93838.31;5029738;28;20138;-73
2022/06/24 04:51:12;;;;;;;9.55;5.88;;;;;;;19.28;60.46;93842.59;5030192;28;20119;-74
2022/06/24 04:53:37;;;;;;;8.45;5.40;;;;;;;19.31;60.80;93843.81;5030909;28;20425;-74
2022/06/24 04:56:03;;;;;;;8.98;6.72;;;;;;;18.94;62.03;93832.94;5033268;28;20021;-73
2022/06/24 04:58:28;;;;;;;6.82;5.45;;;;;;;18.87;62.76;93830.16;5030955;28;20030;-74
2022/06/24 05:00:53;;;;;;;9.20;6.75;;;;;;;18.73;63.75;93846.88;5031659;28;20446;-74
2022/06/24 05:03:19;;;;;;;8.43;5.72;;;;;;;18.78;63.14;93826.94;5031200;28;20025;-74
2022/06/24 05:05:44;;;;;;;13.38;5.63;;;;;;;19.12;62.99;93846.63;5032015;28;20505;-74
2022/06/24 05:08:10;;;;;;;10.40;6.07;;;;;;;19.10;62.04;93830.06;5034156;28;20036;-73
2022/06/24 05:10:35;;;;;;;12.43;7.05;;;;;;;19.16;62.59;93837.47;5035843;28;20515;-73
2022/06/24 05:13:01;;;;;;;5.25;4.68;;;;;;;19.11;62.00;93845.09;5027693;28;20037;-73
2022/06/24 05:15:26;;;;;;;8.85;5.47;;;;;;;19.05;62.82;93849.25;5028464;28;20548;-74
2022/06/24 05:17:51;;;;;;;7.47;5.57;;;;;;;19.16;62.28;93852.88;5031280;28;20505;-72
2022/06/24 05:20:17;;;;;;;8.27;6.70;;;;;;;19.05;62.91;93835.78;5031577;28;20371;-73
2022/06/24 05:22:43;;;;;;;8.20;6.30;;;;;;;18.85;62.33;93784.69;5029929;28;20439;-74
2022/06/24 05:25:08;;;;;;;10.65;7.03;;;;;;;19.40;61.48;93862.41;5027527;28;20037;-74
2022/06/24 05:27:34;;;;;;;13.15;7.05;;;;;;;19.47;62.09;93857.88;5026561;28;20049;-73
2022/06/24 05:30:00;;;;;;;9.35;5.75;;;;;;;19.09;61.77;93853.53;5031725;28;20049;-74
2022/06/24 05:32:26;;;;;;;10.00;6.10;;;;;;;19.10;62.50;93848.94;5030387;28;20063;-76
2022/06/24 05:34:51;;;;;;;7.72;5.15;;;;;;;19.03;63.33;93856.91;5034087;28;20021;-73
2022/06/24 05:37:17;;;;;;;9.25;6.30;;;;;;;19.17;63.96;93884.81;5032443;28;20572;-76
2022/06/24 05:39:42;;;;;;;7.88;5.85;;;;;;;19.36;64.22;93892.00;5037056;28;20056;-77
2022/06/24 05:42:08;;;;;;;8.90;5.55;;;;;;;19.45;62.32;93889.84;5034899;28;20052;-76
2022/06/24 08:24:49;;;;;;;6.05;3.78;;;;;;;19.66;58.70;93811.84;5084598;27;1448298;-81
2022/06/24 08:27:15;;;;;;;4.35;3.45;;;;;;;19.89;58.00;93836.00;5111504;27;20027;-73
2022/06/24 08:29:40;;;;;;;6.22;3.20;;;;;;;19.75;58.81;93817.72;5110411;27;20023;-73
2022/06/24 08:32:06;;;;;;;7.07;3.80;;;;;;;19.80;58.33;93832.03;5111285;27;20049;-72
2022/06/24 08:34:32;;;;;;;3.42;3.03;;;;;;;19.66;58.47;93806.44;5107947;27;20020;-73
2022/06/24 08:36:57;;;;;;;5.38;3.47;;;;;;;19.37;58.19;93801.09;5111399;27;20016;-76
2022/06/24 08:39:22;;;;;;;4.93;2.67;;;;;;;19.59;58.48;93832.59;5110023;27;20384;-72
2022/06/24 08:41:55;;;;;;;3.55;2.70;;;;;;;19.72;57.47;93831.97;5108214;27;20030;-72
2022/06/24 08:44:20;;;;;;;3.38;2.72;;;;;;;19.90;56.73;93836.75;5109246;27;20023;-74
2022/06/24 08:46:46;;;;;;;2.53;2.10;;;;;;;19.84;53.85;93824.75;5106689;27;20019;-72
2022/06/24 08:49:12;;;;;;;6.88;2.72;;;;;;;19.88;54.43;93833.66;5106166;27;20575;-74
2022/06/24 08:51:38;;;;;;;5.40;3.13;;;;;;;19.79;57.40;93825.09;5056278;28;20422;-74
2022/06/24 08:54:07;;;;;;;4.28;2.88;;;;;;;19.95;56.45;93826.38;5020548;28;20234;-74
2022/06/24 08:56:33;;;;;;;4.18;3.22;;;;;;;19.78;58.44;93801.94;5038855;28;20103;-73
2022/06/24 08:58:58;;;;;;;3.63;3.08;;;;;;;20.01;57.45;93829.53;5088489;28;20024;-73
2022/06/24 09:01:24;;;;;;;7.20;2.78;;;;;;;19.93;58.03;93814.44;5087934;28;20036;-74
2022/06/24 09:03:49;;;;;;;3.55;2.60;;;;;;;20.06;56.15;93826.50;5089113;28;20044;-74
2022/06/24 09:06:16;;;;;;;4.43;2.70;;;;;;;20.13;56.89;93813.84;5086809;28;20048;-70
2022/06/24 09:08:50;;;;;;;5.93;3.63;;;;;;;20.34;57.40;93834.84;5088827;28;20085;-70
2022/06/24 09:11:16;;;;;;;5.97;3.03;;;;;;;20.52;55.45;93835.78;5063459;28;20039;-71
2022/06/24 09:13:44;;;;;;;3.38;2.40;;;;;;;20.65;55.36;93832.78;5074634;28;20589;-75
2022/06/24 09:16:11;;;;;;;3.45;2.72;;;;;;;20.58;55.28;93820.75;5086827;28;20427;-70
2022/06/24 09:18:37;;;;;;;2.30;2.10;;;;;;;20.68;54.96;93821.97;5084944;28;20564;-73
2022/06/24 09:21:03;;;;;;;4.35;2.53;;;;;;;20.68;54.51;93799.59;5056030;28;20023;-74
2022/06/24 09:23:28;;;;;;;4.97;3.35;;;;;;;20.93;53.79;93827.56;5087170;28;20582;-73
2022/06/24 09:26:02;;;;;;;2.55;2.30;;;;;;;20.93;53.50;93836.44;5073062;28;20084;-74
2022/06/24 09:28:30;;;;;;;2.38;2.10;;;;;;;21.20;53.08;93834.28;5079016;28;20085;-73
2022/06/24 09:31:09;;;;;;;2.90;1.83;;;;;;;21.23;51.14;93836.22;5079872;28;20078;-74
2022/06/24 09:33:40;;;;;;;2.45;1.90;;;;;;;21.27;51.39;93837.00;5084552;28;20069;-73
2022/06/24 09:36:07;;;;;;;4.03;1.80;;;;;;;21.08;50.34;93828.41;5080417;28;20024;-74
2022/06/24 09:39:00;;;;;;;2.65;1.88;;;;;;;21.21;50.05;93826.94;5083040;28;20119;-73
2022/06/24 09:41:26;;;;;;;4.15;2.17;;;;;;;21.11;50.52;93833.84;5084753;28;20028;-74
2022/06/24 09:43:52;;;;;;;3.30;2.20;;;;;;;21.27;52.32;93820.78;5080497;28;20118;-73
2022/06/24 09:46:23;;;;;;;3.15;2.30;;;;;;;21.53;50.50;93840.59;5080272;28;20078;-73
2022/06/24 09:48:51;;;;;;;2.78;1.60;;;;;;;21.51;47.92;93840.22;5083640;28;20025;-74
2022/06/24 09:51:17;;;;;;;4.47;1.90;;;;;;;21.54;48.73;93840.22;5080420;28;20044;-73
2022/06/24 09:53:43;;;;;;;1.88;1.65;;;;;;;21.66;47.72;93825.56;5079312;28;20043;-73
2022/06/24 09:56:10;;;;;;;2.33;1.90;;;;;;;21.79;48.01;93835.69;5053684;28;20028;-73
2022/06/24 10:00:40;;;;;;;2.17;1.60;;;;;;;21.76;49.61;93828.31;4997831;28;20041;-72
2022/06/24 10:01:30;;;;;;;2.70;2.00;;;;;;;21.88;47.82;93843.44;5057437;28;20032;-73
2022/06/24 10:03:55;;;;;;;3.50;1.95;;;;;;;21.75;47.86;93840.31;5039511;28;20291;-74
2022/06/24 10:06:23;;;;;;;3.00;2.00;;;;;;;21.53;49.43;93835.19;5061505;28;20293;-74
2022/06/24 10:08:49;;;;;;;3.40;1.80;;;;;;;21.71;47.93;93844.94;5068531;28;20051;-74
2022/06/24 10:11:15;;;;;;;2.03;1.80;;;;;;;21.69;47.93;93841.84;5074306;28;20036;-74
2022/06/24 10:13:40;;;;;;;2.38;1.83;;;;;;;21.74;48.71;93848.81;5073816;28;20078;-73
2022/06/24 10:16:06;;;;;;;1.65;1.45;;;;;;;21.79;47.04;93845.75;5049927;28;20403;-73
2022/06/24 10:18:43;;;;;;;1.70;1.30;;;;;;;21.74;46.41;93835.28;5070058;28;20040;-73
2022/06/24 10:21:10;;;;;;;1.33;1.23;;;;;;;21.90;44.40;93854.66;5060666;28;20599;-74
2022/06/24 10:23:48;;;;;;;1.30;1.20;;;;;;;21.87;43.75;93855.41;5069571;28;20507;-74
2022/06/24 10:26:23;;;;;;;1.63;1.23;;;;;;;22.02;43.85;93848.88;5070081;28;20052;-73
2022/06/24 10:29:00;;;;;;;9.57;5.28;;;;;;;22.03;45.77;93850.44;5071726;28;20603;-77
2022/06/24 11:16:39;;;;;;;6.28;2.25;;;;;;;22.43;40.24;93816.06;5089613;27;20498;-75
2022/06/24 11:19:05;;;;;;;3.72;1.88;;;;;;;22.34;41.90;93800.16;5044076;28;20106;-76
2022/06/24 11:21:30;;;;;;;2.92;1.25;;;;;;;22.27;42.57;93811.78;5048235;28;20079;-76
2022/06/24 11:24:00;;;;;;;2.35;1.88;;;;;;;22.17;43.11;93801.69;5044457;28;20404;-75
2022/06/24 11:26:25;;;;;;;2.17;1.73;;;;;;;22.28;41.77;93826.88;5048326;28;20036;-74
2022/06/24 11:28:53;;;;;;;2.65;1.45;;;;;;;22.23;40.08;93815.66;5044545;28;20041;-77
2022/06/24 11:31:30;;;;;;;3.58;1.70;;;;;;;22.56;40.24;93812.56;5061283;28;20499;-76
2022/06/24 11:34:04;;;;;;;3.83;1.60;;;;;;;22.58;41.38;93814.88;5019878;28;20043;-75
2022/06/24 11:36:31;;;;;;;3.17;2.03;;;;;;;22.66;40.05;93798.22;5046498;28;20041;-76
2022/06/24 11:38:58;;;;;;;2.88;1.55;;;;;;;22.56;41.17;93806.34;5043409;28;20830;-76
2022/06/24 11:41:34;;;;;;;3.15;1.70;;;;;;;22.59;43.88;93811.75;5036750;28;20025;-76
2022/06/24 11:43:59;;;;;;;5.28;2.00;;;;;;;22.51;42.09;93787.78;5038580;28;20519;-76
2022/06/24 11:46:25;;;;;;;2.53;1.40;;;;;;;22.00;40.91;93742.13;5041376;28;20041;-77
2022/06/24 11:49:04;;;;;;;5.30;2.10;;;;;;;22.19;41.92;93785.81;5048195;28;20032;-77
2022/06/24 11:51:29;;;;;;;2.15;1.70;;;;;;;22.39;40.36;93813.31;5041513;28;20124;-76
2022/06/24 11:53:59;;;;;;;2.13;1.52;;;;;;;22.37;41.32;93812.16;5041410;28;20526;-78
2022/06/24 11:56:28;;;;;;;2.95;1.90;;;;;;;22.47;40.47;93789.72;5042735;28;20033;-77
2022/06/24 11:58:55;;;;;;;2.55;1.73;;;;;;;22.63;41.37;93795.50;5060078;28;20140;-77
2022/06/24 12:01:24;;;;;;;2.10;1.90;;;;;;;22.59;41.87;93800.13;5045825;28;20328;-78
2022/06/24 12:03:51;;;;;;;3.58;1.58;;;;;;;22.52;41.41;93786.63;5042592;28;20052;-77
2022/06/24 12:06:19;;;;;;;3.40;1.83;;;;;;;22.84;40.91;93806.31;5040718;28;20617;-78
2022/06/24 12:08:46;;;;;;;3.97;2.00;;;;;;;23.02;40.88;93798.94;5041997;28;20496;-77
2022/06/24 12:11:15;;;;;;;4.10;1.75;;;;;;;23.08;38.65;93810.91;5062100;28;20024;-78
2022/06/24 12:13:42;;;;;;;2.60;1.88;;;;;;;23.01;39.09;93788.47;5061471;28;20054;-77
2022/06/24 12:16:08;;;;;;;2.53;2.33;;;;;;;23.27;40.02;93811.66;5055350;28;20055;-77
2022/06/24 12:18:34;;;;;;;2.67;1.88;;;;;;;23.31;40.27;93793.41;5046620;28;20036;-77
2022/06/24 12:21:06;;;;;;;4.35;2.13;;;;;;;23.40;40.27;93810.81;5048852;28;20073;-77
2022/06/24 12:23:33;;;;;;;5.55;1.80;;;;;;;23.54;38.77;93812.72;5044862;28;20020;-76
2022/06/24 12:25:59;;;;;;;1.80;1.70;;;;;;;23.67;38.73;93821.94;5050530;28;20104;-77
2022/06/24 12:28:26;;;;;;;2.08;1.85;;;;;;;23.54;38.13;93799.16;5044217;28;20056;-76
2022/06/24 12:30:56;;;;;;;3.15;1.92;;;;;;;23.86;38.21;93823.41;5044467;28;20036;-78
2022/06/24 12:33:22;;;;;;;2.85;1.88;;;;;;;23.84;37.33;93802.09;5048276;28;20029;-77
2022/06/24 12:35:49;;;;;;;3.85;1.67;;;;;;;24.04;35.66;93820.59;5047361;28;24723;-77
2022/06/24 12:38:14;;;;;;;2.22;1.67;;;;;;;23.90;35.49;93827.66;5048756;28;20017;-77
2022/06/24 12:40:40;;;;;;;2.03;1.50;;;;;;;23.86;38.28;93816.03;5046663;28;20633;-77
2022/06/24 12:43:14;;;;;;;2.53;2.20;;;;;;;23.93;38.94;93810.56;5042625;28;20059;-77
2022/06/24 12:45:41;;;;;;;2.92;1.75;;;;;;;24.06;38.30;93813.56;5045810;28;20036;-77
2022/06/24 12:51:06;;;;;;;1.70;1.60;;;;;;;24.05;38.19;93816.72;5049552;28;20047;-77
2022/06/24 12:53:32;;;;;;;1.95;1.20;;;;;;;24.08;38.12;93815.91;5050887;28;22610;-79
2022/06/24 12:55:59;;;;;;;1.30;1.20;;;;;;;23.89;37.61;93777.22;5050514;28;20021;-77
2022/06/24 12:58:24;;;;;;;3.05;1.63;;;;;;;24.04;37.00;93807.78;5048979;28;20576;-77
2022/06/24 13:00:50;;;;;;;5.00;1.60;;;;;;;24.28;37.23;93803.38;5047793;28;20040;-77
2022/06/24 13:03:18;;;;;;;2.88;1.42;;;;;;;24.23;37.75;93801.06;5042967;28;20141;-76
2022/06/24 13:05:44;;;;;;;2.08;1.58;;;;;;;24.25;38.34;93796.00;5048271;28;20021;-77
2022/06/24 13:08:09;;;;;;;1.60;1.50;;;;;;;24.32;39.08;93806.81;5048822;28;20031;-77
2022/06/24 13:10:35;;;;;;;1.67;1.50;;;;;;;24.22;37.93;93804.97;5028603;28;20599;-78
2022/06/24 13:13:01;;;;;;;2.35;1.92;;;;;;;24.18;37.95;93804.22;5035268;28;20110;-77
2022/06/24 13:15:27;;;;;;;2.30;1.80;;;;;;;24.13;37.60;93791.84;5038010;28;20293;-77
2022/06/24 13:17:53;;;;;;;2.25;1.80;;;;;;;24.32;40.20;93790.50;5043755;28;20048;-77
2022/06/24 13:20:19;;;;;;;2.40;1.90;;;;;;;24.67;39.05;93795.66;5048677;28;20024;-78
2022/06/24 13:22:45;;;;;;;4.47;1.85;;;;;;;24.84;38.81;93800.16;5047604;28;20032;-77
2022/06/24 13:25:11;;;;;;;2.10;1.90;;;;;;;24.78;37.45;93793.59;5047496;28;20033;-77
2022/06/24 13:27:38;;;;;;;3.00;1.70;;;;;;;24.87;37.13;93789.66;5036347;28;20034;-77
2022/06/24 13:30:06;;;;;;;2.88;1.50;;;;;;;24.63;35.91;93732.38;5030264;28;20136;-78
2022/06/24 13:32:32;;;;;;;4.32;1.50;;;;;;;25.00;37.07;93787.97;5037902;28;20232;-76
2022/06/24 13:34:57;;;;;;;1.50;1.20;;;;;;;24.96;37.09;93768.97;5044343;28;20035;-77
2022/06/24 13:37:23;;;;;;;1.83;1.27;;;;;;;25.13;37.10;93765.25;5044918;28;20392;-79
2022/06/24 13:39:48;;;;;;;3.92;1.63;;;;;;;25.22;35.19;93768.25;5047335;28;20068;-77
2022/06/24 13:42:14;;;;;;;1.67;1.40;;;;;;;25.51;35.01;93779.63;5045031;28;20396;-76
2022/06/24 13:44:40;;;;;;;1.45;1.35;;;;;;;25.49;36.74;93771.06;5045203;28;20052;-78
2022/06/24 13:47:05;;;;;;;1.70;1.27;;;;;;;25.53;36.95;93787.34;5044125;28;20109;-78
2022/06/24 13:49:31;;;;;;;1.98;1.30;;;;;;;25.43;35.72;93755.59;5049327;28;20033;-78
2022/06/24 13:51:57;;;;;;;3.40;1.88;;;;;;;25.53;35.50;93755.47;5045831;28;20028;-78
2022/06/24 13:54:23;;;;;;;2.13;1.85;;;;;;;25.60;34.70;93760.03;5035233;28;20045;-77
2022/06/24 13:56:50;;;;;;;1.55;1.20;;;;;;;25.50;34.73;93750.06;5029861;28;20200;-77
2022/06/24 13:59:16;;;;;;;1.95;1.15;;;;;;;25.75;35.36;93764.13;5025120;28;20033;-77
2022/06/24 14:01:43;;;;;;;1.33;1.20;;;;;;;25.74;34.95;93751.69;5038591;28;20057;-77
2022/06/24 14:04:08;;;;;;;1.70;1.20;;;;;;;26.01;34.73;93768.03;5036687;28;20114;-76
2022/06/24 14:06:35;;;;;;;4.15;1.23;;;;;;;25.96;33.21;93760.31;5029458;28;20400;-79
2022/06/24 14:09:00;;;;;;;2.55;1.48;;;;;;;26.09;33.36;93756.63;5032795;28;20045;-76
2022/06/24 14:11:26;;;;;;;1.23;0.90;;;;;;;25.80;33.43;93752.00;5043101;28;20969;-77
2022/06/24 14:13:52;;;;;;;1.55;1.42;;;;;;;26.09;33.65;93761.31;5043225;28;20037;-77
2022/06/24 14:16:17;;;;;;;3.47;1.58;;;;;;;26.30;34.78;93762.94;5034165;28;20045;-77
2022/06/24 14:18:42;;;;;;;1.40;1.30;;;;;;;26.39;33.47;93765.91;5039479;28;20439;-77
2022/06/24 14:21:08;;;;;;;1.35;1.25;;;;;;;26.60;31.89;93762.81;5040599;28;20033;-77
2022/06/24 14:26:20;;;;;;;2.97;1.20;;;;;;;26.38;32.45;93759.66;5024996;28;20036;-78
2022/06/24 14:28:46;;;;;;;1.60;1.38;;;;;;;26.57;32.35;93771.84;5021951;28;20041;-80
2022/06/24 14:31:13;;;;;;;1.33;1.23;;;;;;;26.25;31.59;93719.78;5024893;28;20039;-77
2022/06/24 14:33:39;;;;;;;1.38;1.27;;;;;;;26.63;31.72;93772.13;5029183;28;20067;-77
2022/06/24 14:36:05;;;;;;;1.75;1.35;;;;;;;26.45;31.93;93745.91;5042706;28;20593;-77
2022/06/24 14:41:15;;;;;;;1.90;1.67;;;;;;;26.44;33.06;93738.94;5048083;28;20499;-78
2022/06/24 14:43:41;;;;;;;2.67;1.58;;;;;;;26.47;33.12;93767.34;5044999;28;20045;-79
2022/06/24 14:46:06;;;;;;;1.95;1.42;;;;;;;26.33;32.71;93771.03;5030384;28;20053;-76
2022/06/24 14:48:32;;;;;;;4.57;1.40;;;;;;;25.57;33.27;93728.94;5025853;28;20075;-77
2022/06/24 14:50:57;;;;;;;2.25;1.90;;;;;;;26.12;34.39;93769.41;5031013;28;20035;-79
2022/06/24 14:53:23;;;;;;;1.60;1.50;;;;;;;26.20;33.41;93759.19;5045847;28;20104;-77
2022/06/24 14:55:49;;;;;;;2.13;1.67;;;;;;;26.33;33.83;93773.00;5043796;28;21078;-78
2022/06/24 14:58:14;;;;;;;1.88;1.60;;;;;;;26.15;34.61;93772.53;5045887;28;20063;-78
2022/06/24 15:00:40;;;;;;;2.78;2.25;;;;;;;26.13;34.53;93732.03;5045015;28;20131;-77
2022/06/24 15:03:06;;;;;;;2.90;1.73;;;;;;;26.17;35.52;93732.75;5045261;28;20416;-80
2022/06/24 15:05:31;;;;;;;1.70;1.40;;;;;;;26.18;34.29;93750.66;5043350;28;20025;-77
2022/06/24 15:07:57;;;;;;;1.60;1.50;;;;;;;26.03;33.54;93733.75;5044046;28;20865;-77
2022/06/24 15:10:23;;;;;;;2.00;1.30;;;;;;;26.26;34.48;93745.84;5038491;28;20033;-79
2022/06/24 15:12:48;;;;;;;1.83;1.67;;;;;;;26.26;34.47;93735.72;5037659;28;20037;-76
2022/06/24 15:15:14;;;;;;;1.70;1.60;;;;;;;26.07;34.01;93733.69;5039278;28;20676;-79